This is the latest recevied weather packets stored in our database for station/object OE5RBO. If no packets are shown the sender has not sent any weather packets the latest 10 day(s).
| Time | Temp. | Humidity | Pressure | Rain* | Wind** | Luminosity | Snow |
|---|---|---|---|---|---|---|---|
| 1787922583 | 29.44° C | 64% | 1011.8 hPa | 0 mm | - | - | - |
| 1787921982 | 30° C | 63% | 1011.7 hPa | 0 mm | - | - | - |
| 1787921382 | 31.11° C | 59% | 1011.5 hPa | 0 mm | - | - | - |
| 1787920781 | 33.89° C | 52% | 1011.1 hPa | 0 mm | - | - | - |
| 1787920181 | 35° C | 49% | 1010.4 hPa | 0 mm | - | - | - |
| 1787919581 | 35° C | 51% | 1010.6 hPa | 0 mm | - | - | - |
| 1787918981 | 37.22° C | 46% | 1010.3 hPa | 0 mm | - | - | - |
| 1787918380 | 36.11° C | 46% | 1010.2 hPa | 0 mm | - | - | - |
| 1787917779 | 36.67° C | 46% | 1010.2 hPa | 0 mm | - | - | - |
| 1787917179 | 36.11° C | 47% | 1010.3 hPa | 0 mm | - | - | - |
| 1787916579 | 35° C | 50% | 1010.3 hPa | 0 mm | - | - | - |
| 1787915979 | 35° C | 49% | 1010.6 hPa | 0 mm | - | - | - |
| 1787915378 | 32.78° C | 53% | 1010.4 hPa | 0 mm | - | - | - |
| 1787914778 | 33.33° C | 51% | 1010.3 hPa | 0 mm | - | - | - |
| 1787914177 | 34.44° C | 52% | 1010.2 hPa | 0 mm | - | - | - |
| 1787913577 | 33.89° C | 50% | 1010.1 hPa | 0 mm | - | - | - |
| 1787912976 | 33.33° C | 52% | 1010.2 hPa | 0 mm | - | - | - |
| 1787912376 | 32.22° C | 56% | 1010.1 hPa | 0 mm | - | - | - |
| 1787911176 | 33.33° C | 53% | 1009.7 hPa | 0 mm | - | - | - |
| 1787910584 | 33.89° C | 52% | 1009.8 hPa | 0 mm | - | - | - |
| 1787910033 | 33.33° C | 56% | 1010 hPa | 0 mm | - | - | - |
| 1787909375 | 32.78° C | 56% | 1010 hPa | 0 mm | - | - | - |
| 1787908779 | 32.22° C | 59% | 1010.2 hPa | 0 mm | - | - | - |
| 1787908174 | 32.22° C | 58% | 1010.6 hPa | 0 mm | - | - | - |
| 1787906973 | 31.11° C | 64% | 1011.2 hPa | 0 mm | - | - | - |
* Rain since midnight (hover to see other rain measurements)
** Current wind speed in m/s (hover to see current wind gust speed)